Time,TemperatureF,DewpointF,PressureIn,WindDirection,WindDirectionDegrees,WindSpeedMPH,WindSpeedGustMPH,Humidity,HourlyPrecipIn,Conditions,Clouds,dailyrainin,SoftwareType,DateUTC
2013-02-13 00:00:00,28.1,25.3,30.01,West,280,0.0,0.0,89,0.00,,,0.00,Wunderground v.1.15,2013-02-13 06:00:00,
2013-02-13 19:35:00,35.5,29.3,29.88,WSW,241,0.0,0.0,78,0.00,,,0.00,Wunderground v.1.15,2013-02-14 01:35:00,
2013-02-13 19:45:00,35.0,29.1,29.88,WSW,241,0.0,0.0,79,0.00,,,0.00,Wunderground v.1.15,2013-02-14 01:45:00,
2013-02-13 19:50:00,34.8,29.0,29.88,WSW,241,0.0,0.0,79,0.00,,,0.00,Wunderground v.1.15,2013-02-14 01:50:00,
2013-02-13 19:55:00,34.5,28.7,29.88,WSW,241,0.0,0.0,79,0.00,,,0.00,Wunderground v.1.15,2013-02-14 01:55:00,
2013-02-13 20:05:00,34.0,28.5,29.88,WSW,241,1.0,2.0,80,0.00,,,0.00,Wunderground v.1.15,2013-02-14 02:05:00,
2013-02-13 20:15:00,33.5,28.0,29.88,WSW,242,0.0,0.0,80,0.00,,,0.00,Wunderground v.1.15,2013-02-14 02:15:00,
2013-02-13 20:25:00,33.2,28.0,29.88,WSW,242,0.0,3.0,81,0.00,,,0.00,Wunderground v.1.15,2013-02-14 02:25:00,
2013-02-13 20:30:00,32.9,27.7,29.89,WSW,242,2.0,3.0,81,0.00,,,0.00,Wunderground v.1.15,2013-02-14 02:30:00,
2013-02-13 20:40:00,32.6,27.7,29.88,WSW,242,3.0,3.0,82,0.00,,,0.00,Wunderground v.1.15,2013-02-14 02:40:00,
2013-02-13 20:45:00,32.5,27.9,29.88,WSW,242,3.0,3.0,83,0.00,,,0.00,Wunderground v.1.15,2013-02-14 02:45:00,
2013-02-13 20:50:00,32.3,27.7,29.88,WSW,242,3.0,3.0,83,0.00,,,0.00,Wunderground v.1.15,2013-02-14 02:50:00,
2013-02-13 21:00:00,32.1,27.5,29.88,WSW,242,3.0,3.0,83,0.00,,,0.00,Wunderground v.1.15,2013-02-14 03:00:00,
2013-02-13 21:10:00,31.9,27.6,29.88,WSW,241,2.0,2.0,84,0.00,,,0.00,Wunderground v.1.15,2013-02-14 03:10:00,
2013-02-13 21:15:00,31.7,27.4,29.88,WSW,241,2.0,2.0,84,0.00,,,0.00,Wunderground v.1.15,2013-02-14 03:15:00,
2013-02-13 21:25:00,31.6,27.3,29.88,WSW,241,1.0,2.0,84,0.00,,,0.00,Wunderground v.1.15,2013-02-14 03:25:00,
2013-02-13 21:30:00,31.4,27.1,29.88,WSW,241,0.0,0.0,84,0.00,,,0.00,Wunderground v.1.15,2013-02-14 03:30:00,
2013-02-13 21:35:00,31.4,27.1,29.88,WSW,241,0.0,0.0,84,0.00,,,0.00,Wunderground v.1.15,2013-02-14 03:35:00,
2013-02-13 21:45:00,31.2,26.9,29.88,WSW,241,0.0,0.0,84,0.00,,,0.00,Wunderground v.1.15,2013-02-14 03:45:00,
2013-02-13 21:55:00,31.2,27.2,29.89,WSW,241,3.0,4.0,85,0.00,,,0.00,Wunderground v.1.15,2013-02-14 03:55:00,
2013-02-13 22:00:00,31.1,27.1,29.89,WSW,241,3.0,3.0,85,0.00,,,0.00,Wunderground v.1.15,2013-02-14 04:00:00,
2013-02-13 22:05:00,31.1,27.1,29.88,WSW,241,1.0,3.0,85,0.00,,,0.00,Wunderground v.1.15,2013-02-14 04:05:00,
2013-02-13 22:10:00,31.0,26.7,29.89,WSW,241,0.0,0.0,84,0.00,,,0.00,Wunderground v.1.15,2013-02-14 04:10:00,
2013-02-13 22:15:00,30.9,26.9,29.88,WSW,241,0.0,0.0,85,0.00,,,0.00,Wunderground v.1.15,2013-02-14 04:15:00,
2013-02-13 22:25:00,30.7,26.7,29.89,WSW,241,0.0,0.0,85,0.00,,,0.00,Wunderground v.1.15,2013-02-14 04:25:00,
2013-02-13 22:30:00,30.7,26.7,29.88,WSW,241,0.0,4.0,85,0.00,,,0.00,Wunderground v.1.15,2013-02-14 04:30:00,
2013-02-13 22:35:00,30.6,26.6,29.89,WSW,241,2.0,4.0,85,0.00,,,0.00,Wunderground v.1.15,2013-02-14 04:35:00,
2013-02-13 22:40:00,30.6,26.9,29.89,WSW,241,2.0,2.0,86,0.00,,,0.00,Wunderground v.1.15,2013-02-14 04:40:00,
2013-02-13 22:50:00,30.6,26.9,29.88,WSW,241,0.0,1.0,86,0.00,,,0.00,Wunderground v.1.15,2013-02-14 04:50:00,
2013-02-13 23:00:00,30.7,27.0,29.88,WSW,240,0.0,0.0,86,0.00,,,0.00,Wunderground v.1.15,2013-02-14 05:00:00,
2013-02-13 23:05:00,30.8,27.1,29.88,WSW,240,0.0,0.0,86,0.00,,,0.00,Wunderground v.1.15,2013-02-14 05:05:00,
2013-02-13 23:10:00,30.8,27.1,29.88,WSW,239,1.0,2.0,86,0.00,,,0.00,Wunderground v.1.15,2013-02-14 05:10:00,
2013-02-13 23:15:00,30.8,27.1,29.88,WSW,238,2.0,3.0,86,0.00,,,0.00,Wunderground v.1.15,2013-02-14 05:15:00,
2013-02-13 23:20:00,30.8,27.1,29.88,WSW,237,2.0,2.0,86,0.00,,,0.00,Wunderground v.1.15,2013-02-14 05:20:00,
2013-02-13 23:25:00,30.8,27.1,29.88,SW,236,2.0,2.0,86,0.00,,,0.00,Wunderground v.1.15,2013-02-14 05:25:00,
2013-02-13 23:35:00,30.7,27.0,29.88,SW,236,1.0,2.0,86,0.00,,,0.00,Wunderground v.1.15,2013-02-14 05:35:00,
2013-02-13 23:40:00,30.7,27.0,29.88,SW,236,1.0,2.0,86,0.00,,,0.00,Wunderground v.1.15,2013-02-14 05:40:00,
2013-02-13 23:45:00,30.8,27.4,29.88,SW,232,1.0,5.0,87,0.00,,,0.00,Wunderground v.1.15,2013-02-14 05:45:00,
2013-02-13 23:55:00,31.2,27.8,29.88,SSW,201,3.0,3.0,87,0.00,,,0.00,Wunderground v.1.15,2013-02-14 05:55:00,